sensor_id;sensor_type;location;lat;lon;timestamp;P1;durP1;ratioP1;P2;durP2;ratioP2
15289;SDS011;7746;50.554;7.108;2023-03-05T00:02:01;9.57;;;3.83;;
15289;SDS011;7746;50.554;7.108;2023-03-05T00:04:28;9.70;;;3.87;;
15289;SDS011;7746;50.554;7.108;2023-03-05T00:06:55;8.17;;;3.70;;
15289;SDS011;7746;50.554;7.108;2023-03-05T00:09:22;13.33;;;4.13;;
15289;SDS011;7746;50.554;7.108;2023-03-05T00:11:49;14.10;;;4.53;;
15289;SDS011;7746;50.554;7.108;2023-03-05T00:14:16;15.07;;;5.63;;
15289;SDS011;7746;50.554;7.108;2023-03-05T00:16:44;12.30;;;4.70;;
15289;SDS011;7746;50.554;7.108;2023-03-05T00:19:12;16.23;;;5.17;;
15289;SDS011;7746;50.554;7.108;2023-03-05T00:21:40;12.67;;;4.97;;
15289;SDS011;7746;50.554;7.108;2023-03-05T00:24:09;14.20;;;5.13;;
15289;SDS011;7746;50.554;7.108;2023-03-05T00:26:37;10.47;;;4.10;;
15289;SDS011;7746;50.554;7.108;2023-03-05T00:29:04;16.33;;;6.17;;
15289;SDS011;7746;50.554;7.108;2023-03-05T00:31:32;13.27;;;4.27;;
15289;SDS011;7746;50.554;7.108;2023-03-05T00:34:00;8.80;;;4.87;;
15289;SDS011;7746;50.554;7.108;2023-03-05T00:36:29;11.87;;;4.10;;
15289;SDS011;7746;50.554;7.108;2023-03-05T00:38:56;9.30;;;3.40;;
15289;SDS011;7746;50.554;7.108;2023-03-05T00:41:23;8.97;;;4.50;;
15289;SDS011;7746;50.554;7.108;2023-03-05T00:43:51;10.13;;;4.63;;
15289;SDS011;7746;50.554;7.108;2023-03-05T00:46:18;9.23;;;3.80;;
15289;SDS011;7746;50.554;7.108;2023-03-05T00:48:45;8.90;;;4.50;;
15289;SDS011;7746;50.554;7.108;2023-03-05T00:51:12;10.50;;;4.23;;
15289;SDS011;7746;50.554;7.108;2023-03-05T00:53:40;12.63;;;4.43;;
15289;SDS011;7746;50.554;7.108;2023-03-05T00:56:07;16.77;;;6.43;;
15289;SDS011;7746;50.554;7.108;2023-03-05T00:58:35;15.63;;;6.33;;
15289;SDS011;7746;50.554;7.108;2023-03-05T01:01:02;12.60;;;4.47;;
15289;SDS011;7746;50.554;7.108;2023-03-05T01:03:30;10.67;;;4.00;;
15289;SDS011;7746;50.554;7.108;2023-03-05T01:05:57;11.27;;;4.30;;
15289;SDS011;7746;50.554;7.108;2023-03-05T01:08:24;17.77;;;5.27;;
15289;SDS011;7746;50.554;7.108;2023-03-05T01:10:53;11.80;;;6.10;;
15289;SDS011;7746;50.554;7.108;2023-03-05T01:13:20;14.47;;;5.00;;
15289;SDS011;7746;50.554;7.108;2023-03-05T01:15:47;11.50;;;4.03;;
15289;SDS011;7746;50.554;7.108;2023-03-05T01:18:15;12.17;;;4.20;;
15289;SDS011;7746;50.554;7.108;2023-03-05T01:20:42;19.27;;;6.20;;
15289;SDS011;7746;50.554;7.108;2023-03-05T01:23:09;14.57;;;4.70;;
15289;SDS011;7746;50.554;7.108;2023-03-05T01:25:37;14.87;;;4.30;;
15289;SDS011;7746;50.554;7.108;2023-03-05T01:28:05;11.83;;;4.73;;
15289;SDS011;7746;50.554;7.108;2023-03-05T01:30:32;25.30;;;7.37;;
15289;SDS011;7746;50.554;7.108;2023-03-05T01:32:59;15.13;;;5.20;;
15289;SDS011;7746;50.554;7.108;2023-03-05T01:35:27;12.33;;;4.83;;
15289;SDS011;7746;50.554;7.108;2023-03-05T01:37:54;11.30;;;4.30;;
15289;SDS011;7746;50.554;7.108;2023-03-05T01:40:23;13.20;;;4.17;;
15289;SDS011;7746;50.554;7.108;2023-03-05T01:42:54;14.10;;;5.07;;
15289;SDS011;7746;50.554;7.108;2023-03-05T01:45:23;14.03;;;5.07;;
15289;SDS011;7746;50.554;7.108;2023-03-05T01:47:50;10.57;;;4.10;;
15289;SDS011;7746;50.554;7.108;2023-03-05T01:50:18;8.70;;;4.23;;
15289;SDS011;7746;50.554;7.108;2023-03-05T01:52:47;17.07;;;5.73;;
15289;SDS011;7746;50.554;7.108;2023-03-05T01:55:16;12.10;;;5.00;;
15289;SDS011;7746;50.554;7.108;2023-03-05T01:57:46;11.93;;;4.73;;
15289;SDS011;7746;50.554;7.108;2023-03-05T02:00:15;10.80;;;3.87;;
15289;SDS011;7746;50.554;7.108;2023-03-05T02:02:44;13.00;;;4.53;;
15289;SDS011;7746;50.554;7.108;2023-03-05T02:05:14;10.90;;;4.70;;
15289;SDS011;7746;50.554;7.108;2023-03-05T02:07:41;15.77;;;5.63;;
15289;SDS011;7746;50.554;7.108;2023-03-05T02:10:15;11.17;;;4.27;;
15289;SDS011;7746;50.554;7.108;2023-03-05T02:12:43;19.93;;;6.43;;
15289;SDS011;7746;50.554;7.108;2023-03-05T02:15:10;11.87;;;4.50;;
15289;SDS011;7746;50.554;7.108;2023-03-05T02:17:37;12.43;;;4.77;;
15289;SDS011;7746;50.554;7.108;2023-03-05T02:20:07;14.90;;;5.93;;
15289;SDS011;7746;50.554;7.108;2023-03-05T02:22:36;17.67;;;5.77;;
15289;SDS011;7746;50.554;7.108;2023-03-05T02:25:11;12.87;;;5.20;;
15289;SDS011;7746;50.554;7.108;2023-03-05T02:27:38;18.50;;;5.83;;
15289;SDS011;7746;50.554;7.108;2023-03-05T02:30:07;16.97;;;5.77;;
15289;SDS011;7746;50.554;7.108;2023-03-05T02:32:34;14.97;;;4.93;;
15289;SDS011;7746;50.554;7.108;2023-03-05T02:35:01;8.33;;;3.37;;
15289;SDS011;7746;50.554;7.108;2023-03-05T02:37:28;14.17;;;4.37;;
15289;SDS011;7746;50.554;7.108;2023-03-05T02:39:57;14.20;;;4.77;;
15289;SDS011;7746;50.554;7.108;2023-03-05T02:42:24;11.77;;;4.00;;
15289;SDS011;7746;50.554;7.108;2023-03-05T02:44:51;15.83;;;4.47;;
15289;SDS011;7746;50.554;7.108;2023-03-05T02:47:18;12.77;;;4.43;;
15289;SDS011;7746;50.554;7.108;2023-03-05T02:49:45;19.93;;;5.20;;
15289;SDS011;7746;50.554;7.108;2023-03-05T02:52:12;16.40;;;5.90;;
15289;SDS011;7746;50.554;7.108;2023-03-05T02:54:39;15.77;;;4.73;;
15289;SDS011;7746;50.554;7.108;2023-03-05T02:57:07;13.93;;;4.50;;
15289;SDS011;7746;50.554;7.108;2023-03-05T02:59:34;14.33;;;5.30;;
15289;SDS011;7746;50.554;7.108;2023-03-05T03:02:01;11.60;;;4.10;;
15289;SDS011;7746;50.554;7.108;2023-03-05T03:04:29;13.00;;;4.47;;
15289;SDS011;7746;50.554;7.108;2023-03-05T03:06:56;13.73;;;5.57;;
15289;SDS011;7746;50.554;7.108;2023-03-05T03:09:23;11.20;;;4.17;;
15289;SDS011;7746;50.554;7.108;2023-03-05T03:11:50;12.20;;;4.20;;
15289;SDS011;7746;50.554;7.108;2023-03-05T03:14:19;11.30;;;3.83;;
15289;SDS011;7746;50.554;7.108;2023-03-05T03:16:46;11.30;;;4.30;;
15289;SDS011;7746;50.554;7.108;2023-03-05T03:19:13;6.63;;;3.23;;
15289;SDS011;7746;50.554;7.108;2023-03-05T03:21:40;15.13;;;4.73;;
15289;SDS011;7746;50.554;7.108;2023-03-05T03:24:07;12.70;;;4.43;;
15289;SDS011;7746;50.554;7.108;2023-03-05T03:26:34;14.00;;;4.57;;
15289;SDS011;7746;50.554;7.108;2023-03-05T03:29:02;19.20;;;5.57;;
15289;SDS011;7746;50.554;7.108;2023-03-05T03:31:30;11.53;;;4.10;;
15289;SDS011;7746;50.554;7.108;2023-03-05T03:33:57;10.07;;;3.43;;
15289;SDS011;7746;50.554;7.108;2023-03-05T03:36:24;13.60;;;4.07;;
15289;SDS011;7746;50.554;7.108;2023-03-05T03:38:51;15.00;;;5.17;;
15289;SDS011;7746;50.554;7.108;2023-03-05T03:41:18;12.40;;;5.03;;
15289;SDS011;7746;50.554;7.108;2023-03-05T03:43:45;14.43;;;5.57;;
15289;SDS011;7746;50.554;7.108;2023-03-05T03:46:12;16.73;;;5.63;;
15289;SDS011;7746;50.554;7.108;2023-03-05T03:48:40;17.43;;;6.13;;
15289;SDS011;7746;50.554;7.108;2023-03-05T03:51:07;13.83;;;5.07;;
15289;SDS011;7746;50.554;7.108;2023-03-05T03:53:35;14.23;;;4.47;;
15289;SDS011;7746;50.554;7.108;2023-03-05T03:56:02;11.00;;;4.23;;
15289;SDS011;7746;50.554;7.108;2023-03-05T03:58:29;10.20;;;3.97;;
15289;SDS011;7746;50.554;7.108;2023-03-05T04:00:56;12.50;;;5.27;;
15289;SDS011;7746;50.554;7.108;2023-03-05T04:03:23;12.10;;;5.33;;
15289;SDS011;7746;50.554;7.108;2023-03-05T04:05:51;17.57;;;7.57;;
15289;SDS011;7746;50.554;7.108;2023-03-05T04:08:18;11.77;;;4.90;;
15289;SDS011;7746;50.554;7.108;2023-03-05T04:10:46;18.00;;;5.90;;
15289;SDS011;7746;50.554;7.108;2023-03-05T04:13:13;10.50;;;4.43;;
15289;SDS011;7746;50.554;7.108;2023-03-05T04:15:40;13.60;;;4.77;;
15289;SDS011;7746;50.554;7.108;2023-03-05T04:18:08;9.70;;;3.77;;
15289;SDS011;7746;50.554;7.108;2023-03-05T04:20:35;14.90;;;5.37;;
15289;SDS011;7746;50.554;7.108;2023-03-05T04:23:03;8.50;;;3.80;;
15289;SDS011;7746;50.554;7.108;2023-03-05T04:25:30;9.90;;;4.00;;
15289;SDS011;7746;50.554;7.108;2023-03-05T04:27:57;8.70;;;3.93;;
15289;SDS011;7746;50.554;7.108;2023-03-05T04:30:24;8.80;;;3.77;;
15289;SDS011;7746;50.554;7.108;2023-03-05T04:32:51;10.13;;;4.43;;
15289;SDS011;7746;50.554;7.108;2023-03-05T04:35:18;6.97;;;3.60;;
15289;SDS011;7746;50.554;7.108;2023-03-05T04:37:45;9.87;;;4.47;;
15289;SDS011;7746;50.554;7.108;2023-03-05T04:40:14;9.93;;;4.30;;
15289;SDS011;7746;50.554;7.108;2023-03-05T04:42:41;10.43;;;4.00;;
15289;SDS011;7746;50.554;7.108;2023-03-05T04:45:09;8.97;;;3.97;;
15289;SDS011;7746;50.554;7.108;2023-03-05T04:47:36;8.57;;;3.87;;
15289;SDS011;7746;50.554;7.108;2023-03-05T04:50:04;8.23;;;4.17;;
15289;SDS011;7746;50.554;7.108;2023-03-05T04:52:32;9.40;;;3.80;;
15289;SDS011;7746;50.554;7.108;2023-03-05T04:54:59;9.10;;;3.67;;
15289;SDS011;7746;50.554;7.108;2023-03-05T04:57:27;11.50;;;4.33;;
15289;SDS011;7746;50.554;7.108;2023-03-05T04:59:54;10.57;;;4.57;;
15289;SDS011;7746;50.554;7.108;2023-03-05T05:02:21;10.67;;;4.17;;
15289;SDS011;7746;50.554;7.108;2023-03-05T05:04:51;15.37;;;5.27;;
15289;SDS011;7746;50.554;7.108;2023-03-05T05:07:18;7.67;;;3.37;;
15289;SDS011;7746;50.554;7.108;2023-03-05T05:09:45;14.10;;;4.87;;
15289;SDS011;7746;50.554;7.108;2023-03-05T05:12:12;8.60;;;3.67;;
15289;SDS011;7746;50.554;7.108;2023-03-05T05:14:40;9.37;;;3.90;;
15289;SDS011;7746;50.554;7.108;2023-03-05T05:17:07;10.47;;;4.20;;
15289;SDS011;7746;50.554;7.108;2023-03-05T05:19:34;8.17;;;3.70;;
15289;SDS011;7746;50.554;7.108;2023-03-05T05:22:01;8.87;;;4.73;;
15289;SDS011;7746;50.554;7.108;2023-03-05T05:24:28;7.67;;;4.67;;
15289;SDS011;7746;50.554;7.108;2023-03-05T05:26:55;11.37;;;4.83;;
15289;SDS011;7746;50.554;7.108;2023-03-05T05:29:23;7.23;;;3.97;;
15289;SDS011;7746;50.554;7.108;2023-03-05T05:31:51;11.77;;;4.60;;
15289;SDS011;7746;50.554;7.108;2023-03-05T05:34:18;7.33;;;3.57;;
15289;SDS011;7746;50.554;7.108;2023-03-05T05:36:45;9.43;;;4.03;;
15289;SDS011;7746;50.554;7.108;2023-03-05T05:39:12;12.07;;;4.77;;
15289;SDS011;7746;50.554;7.108;2023-03-05T05:41:39;9.43;;;4.10;;
15289;SDS011;7746;50.554;7.108;2023-03-05T05:44:06;11.13;;;4.53;;
15289;SDS011;7746;50.554;7.108;2023-03-05T05:46:33;9.30;;;4.17;;
15289;SDS011;7746;50.554;7.108;2023-03-05T05:49:02;16.10;;;5.63;;
15289;SDS011;7746;50.554;7.108;2023-03-05T05:51:29;18.27;;;6.50;;
15289;SDS011;7746;50.554;7.108;2023-03-05T05:53:56;9.93;;;4.57;;
15289;SDS011;7746;50.554;7.108;2023-03-05T05:56:23;8.77;;;6.07;;
15289;SDS011;7746;50.554;7.108;2023-03-05T05:58:50;11.27;;;5.50;;
15289;SDS011;7746;50.554;7.108;2023-03-05T06:01:18;7.67;;;4.97;;
15289;SDS011;7746;50.554;7.108;2023-03-05T06:03:46;9.50;;;4.43;;
15289;SDS011;7746;50.554;7.108;2023-03-05T06:06:15;11.37;;;5.20;;
15289;SDS011;7746;50.554;7.108;2023-03-05T06:08:42;10.23;;;5.40;;
15289;SDS011;7746;50.554;7.108;2023-03-05T06:11:10;8.90;;;4.90;;
15289;SDS011;7746;50.554;7.108;2023-03-05T06:13:37;10.93;;;5.50;;
15289;SDS011;7746;50.554;7.108;2023-03-05T06:16:05;13.90;;;7.60;;
15289;SDS011;7746;50.554;7.108;2023-03-05T06:18:33;10.97;;;5.80;;
15289;SDS011;7746;50.554;7.108;2023-03-05T06:21:01;12.87;;;8.00;;
15289;SDS011;7746;50.554;7.108;2023-03-05T06:23:30;13.93;;;11.27;;
15289;SDS011;7746;50.554;7.108;2023-03-05T06:25:58;18.67;;;9.10;;
15289;SDS011;7746;50.554;7.108;2023-03-05T06:28:25;15.70;;;8.33;;
15289;SDS011;7746;50.554;7.108;2023-03-05T06:30:58;12.10;;;5.60;;
15289;SDS011;7746;50.554;7.108;2023-03-05T06:33:25;10.57;;;5.23;;
15289;SDS011;7746;50.554;7.108;2023-03-05T06:35:52;12.07;;;5.63;;
15289;SDS011;7746;50.554;7.108;2023-03-05T06:38:19;13.13;;;7.73;;
15289;SDS011;7746;50.554;7.108;2023-03-05T06:40:47;15.93;;;8.67;;
15289;SDS011;7746;50.554;7.108;2023-03-05T06:43:14;14.13;;;7.83;;
15289;SDS011;7746;50.554;7.108;2023-03-05T06:45:42;13.97;;;7.43;;
15289;SDS011;7746;50.554;7.108;2023-03-05T06:48:09;11.30;;;6.53;;
15289;SDS011;7746;50.554;7.108;2023-03-05T06:50:36;17.00;;;9.97;;
15289;SDS011;7746;50.554;7.108;2023-03-05T06:53:03;13.63;;;6.77;;
15289;SDS011;7746;50.554;7.108;2023-03-05T06:55:31;13.10;;;6.67;;
15289;SDS011;7746;50.554;7.108;2023-03-05T06:58:05;9.63;;;5.37;;
15289;SDS011;7746;50.554;7.108;2023-03-05T07:00:32;16.70;;;9.53;;
15289;SDS011;7746;50.554;7.108;2023-03-05T07:02:59;11.30;;;6.53;;
15289;SDS011;7746;50.554;7.108;2023-03-05T07:05:32;14.33;;;6.37;;
15289;SDS011;7746;50.554;7.108;2023-03-05T07:08:02;20.37;;;8.83;;
15289;SDS011;7746;50.554;7.108;2023-03-05T07:10:29;11.67;;;6.70;;
15289;SDS011;7746;50.554;7.108;2023-03-05T07:12:57;16.33;;;9.73;;
15289;SDS011;7746;50.554;7.108;2023-03-05T07:15:25;14.07;;;7.07;;
15289;SDS011;7746;50.554;7.108;2023-03-05T07:17:52;13.90;;;7.17;;
15289;SDS011;7746;50.554;7.108;2023-03-05T07:20:20;7.30;;;5.90;;
15289;SDS011;7746;50.554;7.108;2023-03-05T07:22:47;10.97;;;5.03;;
15289;SDS011;7746;50.554;7.108;2023-03-05T07:25:14;8.93;;;5.37;;
15289;SDS011;7746;50.554;7.108;2023-03-05T07:27:45;11.57;;;5.70;;
15289;SDS011;7746;50.554;7.108;2023-03-05T07:30:12;13.07;;;6.67;;
15289;SDS011;7746;50.554;7.108;2023-03-05T07:32:41;12.13;;;6.03;;
15289;SDS011;7746;50.554;7.108;2023-03-05T07:35:08;13.43;;;6.60;;
15289;SDS011;7746;50.554;7.108;2023-03-05T07:37:35;15.40;;;7.13;;
15289;SDS011;7746;50.554;7.108;2023-03-05T07:40:03;12.23;;;6.83;;
15289;SDS011;7746;50.554;7.108;2023-03-05T07:42:30;13.87;;;6.30;;
15289;SDS011;7746;50.554;7.108;2023-03-05T07:44:58;14.37;;;6.63;;
15289;SDS011;7746;50.554;7.108;2023-03-05T07:47:25;13.33;;;6.33;;
15289;SDS011;7746;50.554;7.108;2023-03-05T07:49:53;13.97;;;6.73;;
15289;SDS011;7746;50.554;7.108;2023-03-05T07:52:20;11.47;;;8.20;;
15289;SDS011;7746;50.554;7.108;2023-03-05T07:54:47;17.93;;;7.67;;
15289;SDS011;7746;50.554;7.108;2023-03-05T07:57:14;12.53;;;7.03;;
15289;SDS011;7746;50.554;7.108;2023-03-05T07:59:42;12.50;;;6.03;;
15289;SDS011;7746;50.554;7.108;2023-03-05T08:02:09;16.23;;;7.43;;
15289;SDS011;7746;50.554;7.108;2023-03-05T08:04:36;15.37;;;7.73;;
15289;SDS011;7746;50.554;7.108;2023-03-05T08:07:04;13.00;;;8.50;;
15289;SDS011;7746;50.554;7.108;2023-03-05T08:09:32;13.87;;;7.37;;
15289;SDS011;7746;50.554;7.108;2023-03-05T08:11:59;12.80;;;7.23;;
15289;SDS011;7746;50.554;7.108;2023-03-05T08:14:26;9.90;;;5.50;;
15289;SDS011;7746;50.554;7.108;2023-03-05T08:16:53;11.63;;;6.30;;
15289;SDS011;7746;50.554;7.108;2023-03-05T08:19:20;11.03;;;5.67;;
15289;SDS011;7746;50.554;7.108;2023-03-05T08:21:47;12.40;;;6.83;;
15289;SDS011;7746;50.554;7.108;2023-03-05T08:24:18;12.27;;;6.10;;
15289;SDS011;7746;50.554;7.108;2023-03-05T08:26:47;13.20;;;6.57;;
15289;SDS011;7746;50.554;7.108;2023-03-05T08:29:14;14.27;;;6.60;;
15289;SDS011;7746;50.554;7.108;2023-03-05T08:31:43;18.70;;;7.33;;
15289;SDS011;7746;50.554;7.108;2023-03-05T08:34:11;14.87;;;7.77;;
15289;SDS011;7746;50.554;7.108;2023-03-05T08:36:38;13.70;;;6.33;;
15289;SDS011;7746;50.554;7.108;2023-03-05T08:39:05;23.00;;;7.93;;
15289;SDS011;7746;50.554;7.108;2023-03-05T08:41:35;12.67;;;6.63;;
15289;SDS011;7746;50.554;7.108;2023-03-05T08:44:02;12.07;;;5.03;;
15289;SDS011;7746;50.554;7.108;2023-03-05T08:46:29;11.83;;;6.23;;
15289;SDS011;7746;50.554;7.108;2023-03-05T08:48:56;17.60;;;10.37;;
15289;SDS011;7746;50.554;7.108;2023-03-05T08:51:24;15.30;;;7.47;;
15289;SDS011;7746;50.554;7.108;2023-03-05T08:53:51;11.30;;;6.10;;
15289;SDS011;7746;50.554;7.108;2023-03-05T08:56:19;10.13;;;6.03;;
15289;SDS011;7746;50.554;7.108;2023-03-05T08:58:47;11.33;;;6.53;;
15289;SDS011;7746;50.554;7.108;2023-03-05T09:01:16;13.70;;;6.60;;
15289;SDS011;7746;50.554;7.108;2023-03-05T09:03:43;11.77;;;6.17;;
15289;SDS011;7746;50.554;7.108;2023-03-05T09:06:10;15.83;;;6.57;;
15289;SDS011;7746;50.554;7.108;2023-03-05T09:08:38;14.53;;;6.10;;
15289;SDS011;7746;50.554;7.108;2023-03-05T09:11:06;10.90;;;4.83;;
15289;SDS011;7746;50.554;7.108;2023-03-05T09:13:49;16.10;;;8.03;;
15289;SDS011;7746;50.554;7.108;2023-03-05T09:16:17;13.90;;;6.17;;
15289;SDS011;7746;50.554;7.108;2023-03-05T09:18:45;13.23;;;6.13;;
15289;SDS011;7746;50.554;7.108;2023-03-05T09:21:13;13.67;;;8.33;;
15289;SDS011;7746;50.554;7.108;2023-03-05T09:23:42;11.83;;;7.63;;
15289;SDS011;7746;50.554;7.108;2023-03-05T09:26:11;12.23;;;7.33;;
15289;SDS011;7746;50.554;7.108;2023-03-05T09:28:44;12.17;;;7.03;;
15289;SDS011;7746;50.554;7.108;2023-03-05T09:31:13;12.53;;;6.23;;
15289;SDS011;7746;50.554;7.108;2023-03-05T09:33:40;13.17;;;6.57;;
15289;SDS011;7746;50.554;7.108;2023-03-05T09:36:15;15.83;;;7.20;;
15289;SDS011;7746;50.554;7.108;2023-03-05T09:38:44;12.43;;;6.83;;
15289;SDS011;7746;50.554;7.108;2023-03-05T09:41:14;11.10;;;4.77;;
15289;SDS011;7746;50.554;7.108;2023-03-05T09:43:48;10.10;;;5.53;;
15289;SDS011;7746;50.554;7.108;2023-03-05T09:46:27;14.03;;;7.07;;
15289;SDS011;7746;50.554;7.108;2023-03-05T09:49:05;16.57;;;10.23;;
15289;SDS011;7746;50.554;7.108;2023-03-05T09:51:39;14.37;;;12.50;;
15289;SDS011;7746;50.554;7.108;2023-03-05T09:54:11;14.63;;;10.00;;
15289;SDS011;7746;50.554;7.108;2023-03-05T09:56:43;12.80;;;8.03;;
15289;SDS011;7746;50.554;7.108;2023-03-05T09:59:17;35.37;;;11.97;;
15289;SDS011;7746;50.554;7.108;2023-03-05T10:01:52;13.33;;;8.43;;
15289;SDS011;7746;50.554;7.108;2023-03-05T10:04:30;13.33;;;6.80;;
15289;SDS011;7746;50.554;7.108;2023-03-05T10:07:10;11.90;;;6.37;;
15289;SDS011;7746;50.554;7.108;2023-03-05T10:09:41;14.43;;;8.23;;
15289;SDS011;7746;50.554;7.108;2023-03-05T10:12:13;17.03;;;6.57;;
15289;SDS011;7746;50.554;7.108;2023-03-05T10:14:47;12.37;;;5.10;;
15289;SDS011;7746;50.554;7.108;2023-03-05T10:17:26;10.00;;;5.17;;
15289;SDS011;7746;50.554;7.108;2023-03-05T10:22:57;10.17;;;6.17;;
15289;SDS011;7746;50.554;7.108;2023-03-05T10:25:39;15.50;;;6.53;;
15289;SDS011;7746;50.554;7.108;2023-03-05T10:28:19;10.20;;;5.67;;
15289;SDS011;7746;50.554;7.108;2023-03-05T10:30:57;11.80;;;5.67;;
15289;SDS011;7746;50.554;7.108;2023-03-05T10:33:38;12.93;;;5.67;;
15289;SDS011;7746;50.554;7.108;2023-03-05T10:36:26;17.87;;;8.07;;
15289;SDS011;7746;50.554;7.108;2023-03-05T10:39:10;21.50;;;8.40;;
15289;SDS011;7746;50.554;7.108;2023-03-05T10:42:00;10.17;;;5.27;;
15289;SDS011;7746;50.554;7.108;2023-03-05T10:44:33;8.87;;;4.07;;
15289;SDS011;7746;50.554;7.108;2023-03-05T10:47:09;15.20;;;7.67;;
15289;SDS011;7746;50.554;7.108;2023-03-05T10:49:44;13.67;;;5.40;;
15289;SDS011;7746;50.554;7.108;2023-03-05T10:52:17;13.83;;;6.47;;
15289;SDS011;7746;50.554;7.108;2023-03-05T10:54:47;16.77;;;8.03;;
15289;SDS011;7746;50.554;7.108;2023-03-05T10:57:16;14.97;;;8.53;;
15289;SDS011;7746;50.554;7.108;2023-03-05T10:59:49;16.43;;;9.77;;
15289;SDS011;7746;50.554;7.108;2023-03-05T11:02:18;17.27;;;6.53;;
15289;SDS011;7746;50.554;7.108;2023-03-05T11:04:49;27.80;;;8.33;;
15289;SDS011;7746;50.554;7.108;2023-03-05T11:07:31;16.97;;;6.57;;
15289;SDS011;7746;50.554;7.108;2023-03-05T11:10:12;14.20;;;6.97;;
15289;SDS011;7746;50.554;7.108;2023-03-05T11:12:42;12.37;;;5.53;;
15289;SDS011;7746;50.554;7.108;2023-03-05T11:15:21;18.57;;;7.30;;
15289;SDS011;7746;50.554;7.108;2023-03-05T11:18:05;18.10;;;7.07;;
15289;SDS011;7746;50.554;7.108;2023-03-05T11:20:43;19.93;;;7.90;;
15289;SDS011;7746;50.554;7.108;2023-03-05T11:23:12;14.93;;;7.27;;
15289;SDS011;7746;50.554;7.108;2023-03-05T11:28:33;16.90;;;7.37;;
15289;SDS011;7746;50.554;7.108;2023-03-05T11:31:03;16.10;;;7.67;;
15289;SDS011;7746;50.554;7.108;2023-03-05T11:33:34;18.10;;;5.83;;
15289;SDS011;7746;50.554;7.108;2023-03-05T11:36:11;15.07;;;7.07;;
15289;SDS011;7746;50.554;7.108;2023-03-05T11:38:51;13.10;;;6.37;;
15289;SDS011;7746;50.554;7.108;2023-03-05T11:41:24;23.50;;;8.73;;
15289;SDS011;7746;50.554;7.108;2023-03-05T11:43:54;20.17;;;8.50;;
15289;SDS011;7746;50.554;7.108;2023-03-05T11:46:23;16.77;;;8.37;;
15289;SDS011;7746;50.554;7.108;2023-03-05T11:48:52;20.17;;;6.93;;
15289;SDS011;7746;50.554;7.108;2023-03-05T11:51:24;22.00;;;7.80;;
15289;SDS011;7746;50.554;7.108;2023-03-05T11:53:57;20.57;;;7.67;;
15289;SDS011;7746;50.554;7.108;2023-03-05T11:56:32;17.17;;;7.23;;
15289;SDS011;7746;50.554;7.108;2023-03-05T11:59:03;25.90;;;14.53;;
15289;SDS011;7746;50.554;7.108;2023-03-05T12:01:38;20.00;;;11.77;;
15289;SDS011;7746;50.554;7.108;2023-03-05T12:04:10;22.60;;;8.40;;
15289;SDS011;7746;50.554;7.108;2023-03-05T12:06:39;20.43;;;6.77;;
15289;SDS011;7746;50.554;7.108;2023-03-05T12:09:11;26.90;;;10.80;;
15289;SDS011;7746;50.554;7.108;2023-03-05T12:11:43;21.03;;;13.50;;
15289;SDS011;7746;50.554;7.108;2023-03-05T12:14:14;30.57;;;10.27;;
15289;SDS011;7746;50.554;7.108;2023-03-05T12:16:49;21.10;;;12.30;;
15289;SDS011;7746;50.554;7.108;2023-03-05T12:19:32;18.40;;;8.43;;
15289;SDS011;7746;50.554;7.108;2023-03-05T12:22:15;13.70;;;6.53;;
15289;SDS011;7746;50.554;7.108;2023-03-05T12:24:44;13.50;;;6.70;;
15289;SDS011;7746;50.554;7.108;2023-03-05T12:27:13;20.70;;;8.53;;
15289;SDS011;7746;50.554;7.108;2023-03-05T12:29:43;27.23;;;11.13;;
15289;SDS011;7746;50.554;7.108;2023-03-05T12:35:25;17.87;;;6.73;;
15289;SDS011;7746;50.554;7.108;2023-03-05T12:38:00;18.57;;;6.70;;
15289;SDS011;7746;50.554;7.108;2023-03-05T12:40:32;18.03;;;7.43;;
15289;SDS011;7746;50.554;7.108;2023-03-05T12:43:00;16.40;;;6.90;;
15289;SDS011;7746;50.554;7.108;2023-03-05T12:45:29;16.17;;;7.13;;
15289;SDS011;7746;50.554;7.108;2023-03-05T12:51:11;21.73;;;6.33;;
15289;SDS011;7746;50.554;7.108;2023-03-05T12:53:40;21.43;;;7.80;;
15289;SDS011;7746;50.554;7.108;2023-03-05T12:56:12;21.67;;;6.93;;
15289;SDS011;7746;50.554;7.108;2023-03-05T12:58:46;20.87;;;6.80;;
15289;SDS011;7746;50.554;7.108;2023-03-05T13:01:32;15.33;;;6.43;;
15289;SDS011;7746;50.554;7.108;2023-03-05T13:04:04;14.20;;;5.90;;
15289;SDS011;7746;50.554;7.108;2023-03-05T13:06:35;12.17;;;6.30;;
15289;SDS011;7746;50.554;7.108;2023-03-05T13:09:11;19.43;;;7.93;;
15289;SDS011;7746;50.554;7.108;2023-03-05T13:11:45;14.17;;;5.50;;
15289;SDS011;7746;50.554;7.108;2023-03-05T13:14:27;18.67;;;7.67;;
15289;SDS011;7746;50.554;7.108;2023-03-05T13:17:00;15.07;;;6.73;;
15289;SDS011;7746;50.554;7.108;2023-03-05T13:19:28;13.23;;;7.07;;
15289;SDS011;7746;50.554;7.108;2023-03-05T13:22:00;13.60;;;6.00;;
15289;SDS011;7746;50.554;7.108;2023-03-05T13:24:31;16.47;;;7.60;;
15289;SDS011;7746;50.554;7.108;2023-03-05T13:26:58;13.77;;;5.77;;
15289;SDS011;7746;50.554;7.108;2023-03-05T13:29:25;23.93;;;8.77;;
15289;SDS011;7746;50.554;7.108;2023-03-05T13:31:55;19.10;;;6.83;;
15289;SDS011;7746;50.554;7.108;2023-03-05T13:34:25;18.20;;;6.70;;
15289;SDS011;7746;50.554;7.108;2023-03-05T13:36:55;16.43;;;5.93;;
15289;SDS011;7746;50.554;7.108;2023-03-05T13:39:25;20.60;;;7.13;;
15289;SDS011;7746;50.554;7.108;2023-03-05T13:41:57;14.80;;;6.93;;
15289;SDS011;7746;50.554;7.108;2023-03-05T13:44:30;17.10;;;6.33;;
15289;SDS011;7746;50.554;7.108;2023-03-05T13:47:05;22.73;;;7.77;;
15289;SDS011;7746;50.554;7.108;2023-03-05T13:49:34;25.10;;;8.27;;
15289;SDS011;7746;50.554;7.108;2023-03-05T13:52:01;21.10;;;8.13;;
15289;SDS011;7746;50.554;7.108;2023-03-05T13:54:30;19.33;;;6.27;;
15289;SDS011;7746;50.554;7.108;2023-03-05T13:56:59;28.53;;;9.07;;
15289;SDS011;7746;50.554;7.108;2023-03-05T13:59:28;23.63;;;7.50;;
15289;SDS011;7746;50.554;7.108;2023-03-05T14:01:58;19.20;;;7.13;;
15289;SDS011;7746;50.554;7.108;2023-03-05T14:04:27;19.73;;;6.83;;
15289;SDS011;7746;50.554;7.108;2023-03-05T14:06:57;23.33;;;8.90;;
15289;SDS011;7746;50.554;7.108;2023-03-05T14:09:27;20.33;;;8.63;;
15289;SDS011;7746;50.554;7.108;2023-03-05T14:12:01;12.40;;;5.90;;
15289;SDS011;7746;50.554;7.108;2023-03-05T14:14:34;16.47;;;6.87;;
15289;SDS011;7746;50.554;7.108;2023-03-05T14:17:22;15.53;;;5.77;;
15289;SDS011;7746;50.554;7.108;2023-03-05T14:20:06;19.97;;;7.70;;
15289;SDS011;7746;50.554;7.108;2023-03-05T14:22:47;14.87;;;7.83;;
15289;SDS011;7746;50.554;7.108;2023-03-05T14:25:26;18.10;;;8.27;;
15289;SDS011;7746;50.554;7.108;2023-03-05T14:28:04;19.57;;;9.03;;
15289;SDS011;7746;50.554;7.108;2023-03-05T14:30:32;21.80;;;6.40;;
15289;SDS011;7746;50.554;7.108;2023-03-05T14:33:01;20.50;;;6.60;;
15289;SDS011;7746;50.554;7.108;2023-03-05T14:35:28;27.27;;;8.23;;
15289;SDS011;7746;50.554;7.108;2023-03-05T14:37:56;18.47;;;5.57;;
15289;SDS011;7746;50.554;7.108;2023-03-05T14:40:28;24.77;;;7.77;;
15289;SDS011;7746;50.554;7.108;2023-03-05T14:42:57;18.83;;;6.53;;
15289;SDS011;7746;50.554;7.108;2023-03-05T14:45:28;18.03;;;5.87;;
15289;SDS011;7746;50.554;7.108;2023-03-05T14:47:56;16.80;;;6.03;;
15289;SDS011;7746;50.554;7.108;2023-03-05T14:50:25;22.37;;;7.67;;
15289;SDS011;7746;50.554;7.108;2023-03-05T14:52:55;12.43;;;6.33;;
15289;SDS011;7746;50.554;7.108;2023-03-05T14:55:24;15.17;;;7.27;;
15289;SDS011;7746;50.554;7.108;2023-03-05T14:57:56;12.73;;;7.37;;
15289;SDS011;7746;50.554;7.108;2023-03-05T15:00:29;14.30;;;6.97;;
15289;SDS011;7746;50.554;7.108;2023-03-05T15:02:57;10.67;;;6.07;;
15289;SDS011;7746;50.554;7.108;2023-03-05T15:05:24;10.87;;;7.27;;
15289;SDS011;7746;50.554;7.108;2023-03-05T15:07:51;15.20;;;6.90;;
15289;SDS011;7746;50.554;7.108;2023-03-05T15:10:20;9.83;;;4.83;;
15289;SDS011;7746;50.554;7.108;2023-03-05T15:12:49;10.03;;;6.57;;
15289;SDS011;7746;50.554;7.108;2023-03-05T15:15:17;13.30;;;7.63;;